createdAt,value
2019-05-15T00:00:05.839Z,59.50
2019-05-15T00:01:09.273Z,59.50
2019-05-15T00:02:05.355Z,59.60
2019-05-15T00:03:08.376Z,59.60
2019-05-15T00:04:05.574Z,59.80
2019-05-15T00:05:09.487Z,59.90
2019-05-15T00:06:07.845Z,59.90
2019-05-15T00:07:09.292Z,59.90
2019-05-15T00:08:09.928Z,59.90
2019-05-15T00:09:05.099Z,59.90
2019-05-15T00:10:09.191Z,59.90
2019-05-15T00:11:05.211Z,59.90
2019-05-15T00:12:08.861Z,59.80
2019-05-15T00:13:05.937Z,59.80
2019-05-15T00:14:05.127Z,59.80
2019-05-15T00:15:09.713Z,60.10
2019-05-15T00:16:05.723Z,60.10
2019-05-15T00:17:08.657Z,59.90
2019-05-15T00:18:05.789Z,59.90
2019-05-15T00:19:05.903Z,59.80
2019-05-15T00:20:05.073Z,60.50
2019-05-15T00:21:05.203Z,60.40
2019-05-15T00:22:05.497Z,60.20
2019-05-15T00:23:05.590Z,60.10
2019-05-15T00:24:05.721Z,60.10
2019-05-15T00:25:05.881Z,60.10
2019-05-15T00:26:09.797Z,60.10
2019-05-15T00:27:07.673Z,60.10
2019-05-15T00:28:10.004Z,60.10
2019-05-15T00:29:16.219Z,60.10
2019-05-15T00:30:09.058Z,60.10
2019-05-15T00:31:05.031Z,60.10
2019-05-15T00:32:05.192Z,60.30
2019-05-15T00:33:05.353Z,60.30
2019-05-15T00:34:05.715Z,60.30
2019-05-15T00:35:09.876Z,60.30
2019-05-15T00:36:10.144Z,60.20
2019-05-15T00:37:12.729Z,60.30
2019-05-15T00:38:05.719Z,60.20
2019-05-15T00:39:08.947Z,60.30
2019-05-15T00:40:09.303Z,60.40
2019-05-15T00:41:09.774Z,60.30
2019-05-15T00:42:08.716Z,60.40
2019-05-15T00:43:09.224Z,60.40
2019-05-15T00:44:10.284Z,60.30
2019-05-15T00:45:05.010Z,60.40
2019-05-15T00:46:05.084Z,60.30
2019-05-15T00:47:10.866Z,60.40
2019-05-15T00:48:10.969Z,60.40
2019-05-15T00:49:09.107Z,60.30
2019-05-15T00:50:09.319Z,60.40
2019-05-15T00:51:05.249Z,60.40
2019-05-15T00:52:12.635Z,60.80
2019-05-15T00:53:08.944Z,60.70
2019-05-15T00:54:05.087Z,60.70
2019-05-15T00:55:05.170Z,60.70
2019-05-15T00:56:05.318Z,60.60
2019-05-15T00:57:05.621Z,54.30
2019-05-15T00:58:09.138Z,61.00
2019-05-15T00:59:05.152Z,61.10
2019-05-15T01:00:08.528Z,61.10
2019-05-15T01:01:08.730Z,61.10
2019-05-15T01:02:09.087Z,61.10
2019-05-15T01:03:09.190Z,61.70
2019-05-15T01:04:08.474Z,61.80
2019-05-15T01:05:08.584Z,61.70
2019-05-15T01:06:05.571Z,61.70
2019-05-15T01:07:08.734Z,61.80
2019-05-15T01:08:08.039Z,61.80
2019-05-15T01:09:05.229Z,61.80
2019-05-15T01:10:05.330Z,61.90
2019-05-15T01:11:09.528Z,61.80
2019-05-15T01:12:05.554Z,61.80
2019-05-15T01:13:08.931Z,62.00
2019-05-15T01:14:12.485Z,61.90
2019-05-15T01:15:09.692Z,61.80
2019-05-15T01:16:05.707Z,61.80
2019-05-15T01:17:05.854Z,61.90
2019-05-15T01:18:09.703Z,62.10
2019-05-15T01:19:05.614Z,62.10
2019-05-15T01:20:08.976Z,62.00
2019-05-15T01:21:08.796Z,62.20
2019-05-15T01:22:05.838Z,62.20
2019-05-15T01:23:08.575Z,62.10
2019-05-15T01:24:08.261Z,62.20
2019-05-15T01:25:05.423Z,62.20
2019-05-15T01:26:05.504Z,62.20
2019-05-15T01:27:05.592Z,62.20
2019-05-15T01:28:09.884Z,62.20
2019-05-15T01:29:09.483Z,62.30
2019-05-15T01:30:09.455Z,62.30
2019-05-15T01:31:09.011Z,62.20
2019-05-15T01:32:08.823Z,62.10
2019-05-15T01:33:10.890Z,62.00
2019-05-15T01:34:05.901Z,62.00
2019-05-15T01:35:10.024Z,62.00
2019-05-15T01:36:08.865Z,62.20
2019-05-15T01:37:08.981Z,62.20
2019-05-15T01:38:08.577Z,62.50
2019-05-15T01:39:07.466Z,62.50
2019-05-15T01:40:05.001Z,62.70
2019-05-15T01:41:10.023Z,62.90
2019-05-15T01:42:08.748Z,62.90
2019-05-15T01:43:05.704Z,63.00
2019-05-15T01:44:09.209Z,63.00
2019-05-15T01:45:05.174Z,63.00
2019-05-15T01:46:05.273Z,63.20
2019-05-15T01:47:08.911Z,63.30
2019-05-15T01:48:08.422Z,63.30
2019-05-15T01:49:05.456Z,63.50
2019-05-15T01:50:09.733Z,63.50
2019-05-15T01:51:05.697Z,63.50
2019-05-15T01:52:07.916Z,63.50
2019-05-15T01:53:05.132Z,63.70
2019-05-15T01:54:10.067Z,64.10
2019-05-15T01:55:09.593Z,64.20
2019-05-15T01:56:08.885Z,64.20
2019-05-15T01:57:09.718Z,64.10
2019-05-15T01:58:05.643Z,64.20
2019-05-15T01:59:05.714Z,64.20
2019-05-15T02:00:09.130Z,64.30
2019-05-15T02:01:08.536Z,64.20
2019-05-15T02:02:05.539Z,64.20
2019-05-15T02:03:10.278Z,64.00
2019-05-15T02:04:08.728Z,64.00
2019-05-15T02:05:08.268Z,64.00
2019-05-15T02:06:08.727Z,64.00
2019-05-15T02:07:08.587Z,64.00
2019-05-15T02:08:05.187Z,64.00
2019-05-15T02:09:08.096Z,63.90
2019-05-15T02:10:09.703Z,64.00
2019-05-15T02:11:09.596Z,64.00
2019-05-15T02:12:08.930Z,64.00
2019-05-15T02:13:09.075Z,64.10
2019-05-15T02:14:08.680Z,64.20
2019-05-15T02:15:05.623Z,64.10
2019-05-15T02:16:05.713Z,64.10
2019-05-15T02:17:05.581Z,64.30
2019-05-15T02:18:05.626Z,64.40
2019-05-15T02:19:05.656Z,64.30
2019-05-15T02:20:08.877Z,64.50
2019-05-15T02:21:10.199Z,64.40
2019-05-15T02:22:08.742Z,64.50
2019-05-15T02:23:05.909Z,64.50
2019-05-15T02:24:07.790Z,64.50
2019-05-15T02:25:04.944Z,64.50
2019-05-15T02:26:05.198Z,64.40
2019-05-15T02:27:05.365Z,64.40
2019-05-15T02:28:09.744Z,64.40
2019-05-15T02:29:10.456Z,64.50
2019-05-15T02:30:28.767Z,64.50
2019-05-15T02:31:05.178Z,64.40
2019-05-15T02:32:10.628Z,64.60
2019-05-15T02:33:11.175Z,64.60
2019-05-15T02:34:10.715Z,64.60
2019-05-15T02:35:10.531Z,64.80
2019-05-15T02:36:10.945Z,64.70
2019-05-15T02:37:04.957Z,64.80
2019-05-15T02:38:05.095Z,64.80
2019-05-15T02:39:08.677Z,64.80
2019-05-15T02:40:05.888Z,64.80
2019-05-15T02:41:10.515Z,64.80
2019-05-15T02:42:05.596Z,64.80
2019-05-15T02:43:05.898Z,64.90
2019-05-15T02:44:05.120Z,64.90
2019-05-15T02:45:10.733Z,65.00
2019-05-15T02:46:10.614Z,65.00
2019-05-15T02:47:10.654Z,65.00
2019-05-15T02:48:08.575Z,64.90
2019-05-15T02:49:11.027Z,65.00
2019-05-15T02:50:11.488Z,65.10
2019-05-15T02:51:05.575Z,65.10
2019-05-15T02:52:10.294Z,65.40
2019-05-15T02:53:05.274Z,65.30
2019-05-15T02:54:05.714Z,65.30
2019-05-15T02:55:08.924Z,65.30
2019-05-15T02:56:05.184Z,65.40
2019-05-15T02:57:10.221Z,65.30
2019-05-15T02:58:10.781Z,65.30
2019-05-15T02:59:05.238Z,65.30
2019-05-15T03:00:05.203Z,65.40
2019-05-15T03:01:05.329Z,65.50
2019-05-15T03:02:10.679Z,65.60
2019-05-15T03:03:10.845Z,65.80
2019-05-15T03:04:09.683Z,65.70
2019-05-15T03:05:09.866Z,65.80
2019-05-15T03:06:10.426Z,66.00
2019-05-15T03:07:10.019Z,66.10
2019-05-15T03:08:05.030Z,66.10
2019-05-15T03:09:05.123Z,66.20
2019-05-15T03:10:05.259Z,66.30
2019-05-15T03:11:05.432Z,66.10
2019-05-15T03:12:05.649Z,66.30
2019-05-15T03:13:09.342Z,66.20
2019-05-15T03:14:09.722Z,66.20
2019-05-15T03:15:10.322Z,66.20
2019-05-15T03:16:05.436Z,66.40
2019-05-15T03:17:10.142Z,66.30
2019-05-15T03:18:05.234Z,66.30
2019-05-15T03:19:10.544Z,66.50
2019-05-15T03:20:11.311Z,66.50
2019-05-15T03:21:10.180Z,66.80
2019-05-15T03:22:10.305Z,66.80
2019-05-15T03:23:05.427Z,66.80
2019-05-15T03:24:10.642Z,67.00
2019-05-15T03:25:11.303Z,67.20
2019-05-15T03:26:09.158Z,67.10
2019-05-15T03:27:09.492Z,67.30
2019-05-15T03:28:11.266Z,67.30
2019-05-15T03:29:05.399Z,67.40
2019-05-15T03:30:05.685Z,67.40
2019-05-15T03:31:48.621Z,67.40
2019-05-15T03:32:26.982Z,67.40
2019-05-15T03:33:25.271Z,67.30
2019-05-15T03:34:22.611Z,67.30
2019-05-15T03:35:07.703Z,67.20
2019-05-15T03:36:14.100Z,67.20
2019-05-15T03:37:05.156Z,67.20
2019-05-15T03:38:05.479Z,67.20
2019-05-15T03:39:10.114Z,67.10
2019-05-15T03:40:10.953Z,67.20
2019-05-15T03:41:10.803Z,67.20
2019-05-15T03:42:05.420Z,67.20
2019-05-15T03:43:09.459Z,67.20
2019-05-15T03:44:09.895Z,67.20
2019-05-15T03:45:05.023Z,67.30
2019-05-15T03:46:09.522Z,67.20
2019-05-15T03:47:09.653Z,67.30
2019-05-15T03:48:08.960Z,67.10
2019-05-15T03:49:05.159Z,67.00
2019-05-15T03:50:09.476Z,67.00
2019-05-15T03:51:05.430Z,66.90
2019-05-15T03:52:10.440Z,66.80
2019-05-15T03:53:10.919Z,66.80
2019-05-15T03:54:05.180Z,66.80
2019-05-15T03:55:05.543Z,66.80
2019-05-15T03:56:05.295Z,66.80
2019-05-15T03:57:10.196Z,67.00
2019-05-15T03:58:10.519Z,67.10
2019-05-15T03:59:09.013Z,67.10
2019-05-15T04:00:05.376Z,67.10
2019-05-15T04:01:37.012Z,67.00
2019-05-15T04:02:05.148Z,67.00
2019-05-15T04:03:05.325Z,66.80
2019-05-15T04:04:05.565Z,67.00
2019-05-15T04:05:05.813Z,67.00
2019-05-15T04:06:06.062Z,66.90
2019-05-15T04:07:09.505Z,66.90
2019-05-15T04:08:05.000Z,66.90
2019-05-15T04:09:05.548Z,66.90
2019-05-15T04:10:09.518Z,66.90
2019-05-15T04:11:08.877Z,67.00
2019-05-15T04:12:05.257Z,67.20
2019-05-15T04:13:05.421Z,67.40
2019-05-15T04:14:05.680Z,67.60
2019-05-15T04:15:10.730Z,67.60
2019-05-15T04:16:05.759Z,67.60
2019-05-15T04:17:09.542Z,67.80
2019-05-15T04:18:09.807Z,67.80
2019-05-15T04:19:05.012Z,67.90
2019-05-15T04:20:10.399Z,68.00
2019-05-15T04:21:09.814Z,67.90
2019-05-15T04:22:09.672Z,67.90
2019-05-15T04:23:10.939Z,67.80
2019-05-15T04:24:09.858Z,67.80
2019-05-15T04:25:09.355Z,67.80
2019-05-15T04:26:09.804Z,67.70
2019-05-15T04:27:10.934Z,67.70
2019-05-15T04:28:05.317Z,67.70
2019-05-15T04:29:09.473Z,67.60
2019-05-15T04:30:05.931Z,67.60
2019-05-15T04:31:05.204Z,67.80
2019-05-15T04:32:11.323Z,67.70
2019-05-15T04:33:10.799Z,67.60
2019-05-15T04:34:09.456Z,67.60
2019-05-15T04:35:10.065Z,67.70
2019-05-15T04:36:05.208Z,67.60
2019-05-15T04:37:05.384Z,67.70
2019-05-15T04:38:09.902Z,67.80
2019-05-15T04:39:10.283Z,68.00
2019-05-15T04:40:05.403Z,68.10
2019-05-15T04:41:10.040Z,67.80
2019-05-15T04:42:07.842Z,67.80
2019-05-15T04:43:11.323Z,67.70
2019-05-15T04:44:05.396Z,67.70
2019-05-15T04:45:11.373Z,67.60
2019-05-15T04:46:05.417Z,67.60
2019-05-15T04:47:05.583Z,67.60
2019-05-15T04:48:10.769Z,67.40
2019-05-15T04:49:09.634Z,67.40
2019-05-15T04:50:11.028Z,67.40
2019-05-15T04:51:05.142Z,67.40
2019-05-15T04:52:10.819Z,67.40
2019-05-15T04:53:11.315Z,67.40
2019-05-15T04:54:05.324Z,67.40
2019-05-15T04:55:05.430Z,67.50
2019-05-15T04:56:05.217Z,67.50
2019-05-15T04:57:09.454Z,67.70
2019-05-15T04:58:10.845Z,67.70
2019-05-15T04:59:05.058Z,67.80
2019-05-15T05:00:13.041Z,67.80
2019-05-15T05:01:09.873Z,67.70
2019-05-15T05:02:26.288Z,67.70
2019-05-15T05:03:10.524Z,67.80
2019-05-15T05:04:09.804Z,68.00
2019-05-15T05:05:05.921Z,67.90
2019-05-15T05:06:10.540Z,67.90
2019-05-15T05:07:05.636Z,67.90
2019-05-15T05:08:09.718Z,67.90
2019-05-15T05:09:11.086Z,68.00
2019-05-15T05:10:05.277Z,68.00
2019-05-15T05:11:05.557Z,67.90
2019-05-15T05:12:09.002Z,67.80
2019-05-15T05:13:09.201Z,67.70
2019-05-15T05:14:12.766Z,67.70
2019-05-15T05:15:08.947Z,67.70
2019-05-15T05:16:05.092Z,67.80
2019-05-15T05:17:09.633Z,67.70
2019-05-15T05:18:10.003Z,67.70
2019-05-15T05:19:10.109Z,67.60
2019-05-15T05:20:08.578Z,67.60
2019-05-15T05:21:08.289Z,67.60
2019-05-15T05:22:08.209Z,67.60
2019-05-15T05:23:05.291Z,67.60
2019-05-15T05:24:07.428Z,67.50
2019-05-15T05:25:05.042Z,67.60
2019-05-15T05:26:11.057Z,67.60
2019-05-15T05:27:05.187Z,67.50
2019-05-15T05:28:10.526Z,67.20
2019-05-15T05:29:08.932Z,67.40
2019-05-15T05:30:08.977Z,67.40
2019-05-15T05:31:08.834Z,67.40
2019-05-15T05:32:05.887Z,67.40
2019-05-15T05:33:05.262Z,67.50
2019-05-15T05:34:05.653Z,67.60
2019-05-15T05:35:09.093Z,67.60
2019-05-15T05:36:08.369Z,67.50
2019-05-15T05:37:08.176Z,67.40
2019-05-15T05:38:08.280Z,67.50
2019-05-15T05:39:13.697Z,67.50
2019-05-15T05:40:08.397Z,67.40
2019-05-15T05:41:08.487Z,67.40
2019-05-15T05:42:05.232Z,67.60
2019-05-15T05:43:05.855Z,67.70
2019-05-15T05:44:05.231Z,67.60
2019-05-15T05:45:05.424Z,67.20
2019-05-15T05:46:05.885Z,67.00
2019-05-15T05:47:05.374Z,66.90
2019-05-15T05:48:10.642Z,66.50
2019-05-15T05:49:08.318Z,66.50
2019-05-15T05:50:08.356Z,66.20
2019-05-15T05:51:09.740Z,66.30
2019-05-15T05:52:08.815Z,66.30
2019-05-15T05:53:09.261Z,66.30
2019-05-15T05:54:09.758Z,66.40
2019-05-15T05:55:08.493Z,66.30
2019-05-15T05:56:09.352Z,66.10
2019-05-15T05:57:09.489Z,66.10
2019-05-15T05:58:08.441Z,66.10
2019-05-15T05:59:06.129Z,66.10
2019-05-15T06:00:05.264Z,66.00
2019-05-15T06:01:06.073Z,66.00
2019-05-15T06:02:07.585Z,65.40
2019-05-15T06:03:05.121Z,63.40
2019-05-15T06:04:08.236Z,63.30
2019-05-15T06:05:10.386Z,62.70
2019-05-15T06:06:05.438Z,62.70
2019-05-15T06:07:14.177Z,62.40
2019-05-15T06:08:08.493Z,62.10
2019-05-15T06:09:10.573Z,62.30
2019-05-15T06:10:05.654Z,62.10
2019-05-15T06:11:10.204Z,60.80
2019-05-15T06:12:10.430Z,60.70
2019-05-15T06:13:09.025Z,60.70
2019-05-15T06:14:09.185Z,60.20
2019-05-15T06:15:09.306Z,60.40
2019-05-15T06:16:10.277Z,60.20
2019-05-15T06:17:05.336Z,60.10
2019-05-15T06:18:08.685Z,59.90
2019-05-15T06:19:08.750Z,59.70
2019-05-15T06:20:13.467Z,59.80
2019-05-15T06:21:05.380Z,59.80
2019-05-15T06:22:05.652Z,59.40
2019-05-15T06:23:08.869Z,59.00
2019-05-15T06:24:13.581Z,58.70
2019-05-15T06:25:05.804Z,58.70
2019-05-15T06:26:05.011Z,58.90
2019-05-15T06:27:05.169Z,58.90
2019-05-15T06:28:05.305Z,58.60
2019-05-15T06:29:05.430Z,58.00
2019-05-15T06:30:14.995Z,58.00
2019-05-15T06:31:05.809Z,58.00
2019-05-15T06:32:05.014Z,58.00
2019-05-15T06:33:13.469Z,58.20
2019-05-15T06:34:13.342Z,58.00
2019-05-15T06:35:09.138Z,57.80
2019-05-15T06:36:09.440Z,56.90
2019-05-15T06:37:08.700Z,55.80
2019-05-15T06:38:08.938Z,55.50
2019-05-15T06:39:08.832Z,55.40
2019-05-15T06:40:08.915Z,55.00
2019-05-15T06:41:09.125Z,54.40
2019-05-15T06:42:05.174Z,54.30
2019-05-15T06:43:05.270Z,53.80
2019-05-15T06:44:08.331Z,54.10
2019-05-15T06:45:05.415Z,54.10
2019-05-15T06:46:09.608Z,54.30
2019-05-15T06:47:08.060Z,54.40
2019-05-15T06:48:09.807Z,54.70
2019-05-15T06:49:08.825Z,54.90
2019-05-15T06:50:05.908Z,54.90
2019-05-15T06:51:09.301Z,53.90
2019-05-15T06:52:09.264Z,52.90
2019-05-15T06:53:10.999Z,52.90
2019-05-15T06:54:09.165Z,52.70
2019-05-15T06:55:05.178Z,52.70
2019-05-15T06:56:07.396Z,52.70
2019-05-15T06:57:08.301Z,52.80
2019-05-15T06:58:05.370Z,53.00
2019-05-15T06:59:05.523Z,53.20
2019-05-15T07:00:05.669Z,53.40
2019-05-15T07:01:05.005Z,53.50
2019-05-15T07:02:05.119Z,53.50
2019-05-15T07:03:24.661Z,52.80
2019-05-15T07:04:05.656Z,52.00
2019-05-15T07:05:08.298Z,51.50
2019-05-15T07:06:05.454Z,50.60
2019-05-15T07:07:11.288Z,50.60
2019-05-15T07:08:09.395Z,50.50
2019-05-15T07:09:05.447Z,50.70
2019-05-15T07:10:10.631Z,50.60
2019-05-15T07:11:05.671Z,50.50
2019-05-15T07:12:08.461Z,50.70
2019-05-15T07:13:05.527Z,50.70
2019-05-15T07:14:05.676Z,50.40
2019-05-15T07:15:05.935Z,50.50
2019-05-15T07:16:05.149Z,50.60
2019-05-15T07:17:05.418Z,50.20
2019-05-15T07:18:09.068Z,49.80
2019-05-15T07:19:05.161Z,49.80
2019-05-15T07:20:05.353Z,49.40
2019-05-15T07:21:10.869Z,48.90
2019-05-15T07:22:06.370Z,48.90
2019-05-15T07:23:05.520Z,49.10
2019-05-15T07:24:09.601Z,48.70
2019-05-15T07:25:10.709Z,48.90
2019-05-15T07:26:05.700Z,48.90
2019-05-15T07:27:14.543Z,48.20
2019-05-15T07:28:05.508Z,48.20
2019-05-15T07:29:08.287Z,48.20
2019-05-15T07:30:07.285Z,48.10
2019-05-15T07:31:11.938Z,47.20
2019-05-15T07:32:08.525Z,47.60
2019-05-15T07:33:12.716Z,47.40
2019-05-15T07:34:05.318Z,47.40
2019-05-15T07:35:05.474Z,47.50
2019-05-15T07:36:08.893Z,46.60
2019-05-15T07:37:04.974Z,46.60
2019-05-15T07:38:05.107Z,46.30
2019-05-15T07:39:10.318Z,46.00
2019-05-15T07:40:08.811Z,46.10
2019-05-15T07:41:05.760Z,46.10
2019-05-15T07:42:05.933Z,46.00
2019-05-15T07:43:05.856Z,46.10
2019-05-15T07:44:05.255Z,46.00
2019-05-15T07:45:07.678Z,46.20
2019-05-15T07:46:08.082Z,46.60
2019-05-15T07:47:05.456Z,46.10
2019-05-15T07:48:05.836Z,46.40
2019-05-15T07:49:05.002Z,46.80
2019-05-15T07:50:05.126Z,47.10
2019-05-15T07:51:12.106Z,47.50
2019-05-15T07:52:05.066Z,47.50
2019-05-15T07:53:05.274Z,47.20
2019-05-15T07:54:05.553Z,46.20
2019-05-15T07:55:05.657Z,45.80
2019-05-15T07:56:05.863Z,45.50
2019-05-15T07:57:04.948Z,45.90
2019-05-15T07:58:05.034Z,45.80
2019-05-15T07:59:10.437Z,44.50
2019-05-15T08:00:10.387Z,43.80
2019-05-15T08:01:05.842Z,43.80
2019-05-15T08:02:08.837Z,43.80
2019-05-15T08:03:05.919Z,43.90
2019-05-15T08:04:29.046Z,44.00
2019-05-15T08:05:08.733Z,44.60
2019-05-15T08:06:13.522Z,44.60
2019-05-15T08:07:09.530Z,44.50
2019-05-15T08:08:09.247Z,43.80
2019-05-15T08:09:05.255Z,43.70
2019-05-15T08:10:10.539Z,43.60
2019-05-15T08:11:24.434Z,43.90
2019-05-15T08:12:10.472Z,43.70
2019-05-15T08:13:10.505Z,43.50
2019-05-15T08:14:05.585Z,43.50
2019-05-15T08:15:09.259Z,43.60
2019-05-15T08:16:05.258Z,43.70
2019-05-15T08:17:09.056Z,42.90
2019-05-15T08:18:13.031Z,42.90
2019-05-15T08:19:05.420Z,42.70
2019-05-15T08:20:09.440Z,42.30
2019-05-15T08:21:05.483Z,42.30
2019-05-15T08:22:05.658Z,42.00
2019-05-15T08:23:08.323Z,41.80
2019-05-15T08:24:07.905Z,41.80
2019-05-15T08:25:11.593Z,42.30
2019-05-15T08:26:05.245Z,42.60
2019-05-15T08:27:08.689Z,43.40
2019-05-15T08:28:08.243Z,43.40
2019-05-15T08:29:08.847Z,43.80
2019-05-15T08:30:09.285Z,43.90
2019-05-15T08:31:10.326Z,43.90
2019-05-15T08:32:05.543Z,43.40
2019-05-15T08:33:08.838Z,42.60
2019-05-15T08:34:16.980Z,42.60
2019-05-15T08:35:12.687Z,42.10
2019-05-15T08:36:09.019Z,41.70
2019-05-15T08:37:05.242Z,41.70
2019-05-15T08:38:14.669Z,42.10
2019-05-15T08:39:08.294Z,42.10
2019-05-15T08:40:05.659Z,42.00
2019-05-15T08:41:11.944Z,42.60
2019-05-15T08:42:08.232Z,42.60
2019-05-15T08:43:05.374Z,42.50
2019-05-15T08:44:05.529Z,42.10
2019-05-15T08:45:05.991Z,42.20
2019-05-15T08:46:08.774Z,42.60
2019-05-15T08:47:08.582Z,41.40
2019-05-15T08:48:05.649Z,41.30
2019-05-15T08:49:05.862Z,41.40
2019-05-15T08:50:05.030Z,40.80
2019-05-15T08:51:05.272Z,39.90
2019-05-15T08:52:10.385Z,39.80
2019-05-15T08:53:08.813Z,40.00
2019-05-15T08:54:07.946Z,40.00
2019-05-15T08:55:08.979Z,40.10
2019-05-15T08:56:04.978Z,40.20
2019-05-15T08:57:08.426Z,40.00
2019-05-15T08:58:14.298Z,39.90
2019-05-15T08:59:05.430Z,39.90
2019-05-15T09:00:05.705Z,40.30
2019-05-15T09:01:06.022Z,40.30
2019-05-15T09:02:05.215Z,40.40
2019-05-15T09:03:18.084Z,41.00
2019-05-15T09:04:05.556Z,41.00
2019-05-15T09:05:08.828Z,41.30
2019-05-15T09:06:09.607Z,41.70
2019-05-15T09:07:05.630Z,41.80
2019-05-15T09:08:05.522Z,41.90
2019-05-15T09:09:09.971Z,42.50
2019-05-15T09:10:09.449Z,43.20
2019-05-15T09:11:09.699Z,43.00
2019-05-15T09:12:08.571Z,43.00
2019-05-15T09:13:05.743Z,43.00
2019-05-15T09:14:08.671Z,43.10
2019-05-15T09:15:08.045Z,43.10
2019-05-15T09:16:08.120Z,42.90
2019-05-15T09:17:10.403Z,41.90
2019-05-15T09:18:16.335Z,41.80
2019-05-15T09:19:08.171Z,40.90
2019-05-15T09:20:13.008Z,40.80
2019-05-15T09:21:05.022Z,40.80
2019-05-15T09:22:05.300Z,41.60
2019-05-15T09:23:05.636Z,42.20
2019-05-15T09:24:05.862Z,42.50
2019-05-15T09:25:15.080Z,42.00
2019-05-15T09:26:09.671Z,41.90
2019-05-15T09:27:10.543Z,42.10
2019-05-15T09:28:05.641Z,42.10
2019-05-15T09:29:05.781Z,41.60
2019-05-15T09:30:13.527Z,40.80
2019-05-15T09:31:08.858Z,41.30
2019-05-15T09:32:12.340Z,41.20
2019-05-15T09:33:09.100Z,41.10
2019-05-15T09:34:09.481Z,40.70
2019-05-15T09:35:08.693Z,41.00
2019-05-15T09:36:09.492Z,41.70
2019-05-15T09:37:08.962Z,40.80
2019-05-15T09:38:09.058Z,40.90
2019-05-15T09:39:05.125Z,41.00
2019-05-15T09:40:09.333Z,39.50
2019-05-15T09:41:05.312Z,39.50
2019-05-15T09:42:05.452Z,39.60
2019-05-15T09:43:05.601Z,39.50
2019-05-15T09:44:13.310Z,39.00
2019-05-15T09:45:09.369Z,38.90
2019-05-15T09:46:10.356Z,38.70
2019-05-15T09:47:09.590Z,38.80
2019-05-15T09:48:09.443Z,38.80
2019-05-15T09:49:09.199Z,39.10
2019-05-15T09:50:05.239Z,39.10
2019-05-15T09:51:05.366Z,37.90
2019-05-15T09:52:09.433Z,37.60
2019-05-15T09:53:09.693Z,37.90
2019-05-15T09:54:08.361Z,37.90
2019-05-15T09:55:12.989Z,37.50
2019-05-15T09:56:08.510Z,37.40
2019-05-15T09:57:11.337Z,37.60
2019-05-15T09:58:07.785Z,37.60
2019-05-15T09:59:05.301Z,37.60
2019-05-15T10:00:05.443Z,37.50
2019-05-15T10:01:08.915Z,36.90
2019-05-15T10:02:09.599Z,37.00
2019-05-15T10:03:10.721Z,36.70
2019-05-15T10:04:08.638Z,36.80
2019-05-15T10:05:11.537Z,37.20
2019-05-15T10:06:08.512Z,37.20
2019-05-15T10:07:08.050Z,37.20
2019-05-15T10:08:05.324Z,37.10
2019-05-15T10:09:05.493Z,37.30
2019-05-15T10:10:05.636Z,37.60
2019-05-15T10:11:09.507Z,36.30
2019-05-15T10:12:09.559Z,36.70
2019-05-15T10:13:09.398Z,36.90
2019-05-15T10:14:05.453Z,37.00
2019-05-15T10:15:11.919Z,37.20
2019-05-15T10:16:05.073Z,37.20
2019-05-15T10:17:09.587Z,37.60
2019-05-15T10:18:05.810Z,37.60
2019-05-15T10:19:04.997Z,38.00
2019-05-15T10:20:09.564Z,38.10
2019-05-15T10:21:05.526Z,38.00
2019-05-15T10:22:13.275Z,37.40
2019-05-15T10:23:09.399Z,37.50
2019-05-15T10:24:09.953Z,37.70
2019-05-15T10:25:08.691Z,37.70
2019-05-15T10:26:14.708Z,37.50
2019-05-15T10:27:08.581Z,37.00
2019-05-15T10:28:05.205Z,36.80
2019-05-15T10:29:05.658Z,36.80
2019-05-15T10:30:05.788Z,37.10
2019-05-15T10:31:09.842Z,37.70
2019-05-15T10:32:08.844Z,37.70
2019-05-15T10:33:10.987Z,38.30
2019-05-15T10:34:05.890Z,38.30
2019-05-15T10:35:05.107Z,38.50
2019-05-15T10:36:08.809Z,39.10
2019-05-15T10:37:07.871Z,39.00
2019-05-15T10:38:08.516Z,38.80
2019-05-15T10:39:08.703Z,38.60
2019-05-15T10:40:05.917Z,38.40
2019-05-15T10:41:15.269Z,38.70
2019-05-15T10:42:10.506Z,38.90
2019-05-15T10:43:09.500Z,39.00
2019-05-15T10:44:09.622Z,38.70
2019-05-15T10:45:08.758Z,38.40
2019-05-15T10:46:13.967Z,38.20
2019-05-15T10:47:09.133Z,38.10
2019-05-15T10:48:09.827Z,38.20
2019-05-15T10:49:09.124Z,38.30
2019-05-15T10:50:05.248Z,38.30
2019-05-15T10:51:10.375Z,38.70
2019-05-15T10:52:11.604Z,39.40
2019-05-15T10:53:05.594Z,39.40
2019-05-15T10:54:08.329Z,39.40
2019-05-15T10:55:05.685Z,39.60
2019-05-15T10:56:05.857Z,40.00
2019-05-15T10:57:08.492Z,40.10
2019-05-15T10:58:20.974Z,39.60
2019-05-15T10:59:05.520Z,39.60
2019-05-15T11:00:08.242Z,39.70
2019-05-15T11:01:05.432Z,39.90
2019-05-15T11:02:08.976Z,39.80
2019-05-15T11:03:09.265Z,39.60
2019-05-15T11:04:09.667Z,39.00
2019-05-15T11:05:09.824Z,38.60
2019-05-15T11:06:05.779Z,38.60
2019-05-15T11:07:10.177Z,38.80
2019-05-15T11:08:08.722Z,39.00
2019-05-15T11:09:08.953Z,39.50
2019-05-15T11:10:05.019Z,39.50
2019-05-15T11:11:05.201Z,39.00
2019-05-15T11:12:10.441Z,39.50
2019-05-15T11:13:09.411Z,39.30
2019-05-15T11:14:09.604Z,39.40
2019-05-15T11:15:11.546Z,39.50
2019-05-15T11:16:08.295Z,39.50
2019-05-15T11:17:05.366Z,39.40
2019-05-15T11:18:05.503Z,39.20
2019-05-15T11:19:08.276Z,39.30
2019-05-15T11:20:08.733Z,39.60
2019-05-15T11:21:08.708Z,39.60
2019-05-15T11:22:05.766Z,39.60
2019-05-15T11:23:08.410Z,39.10
2019-05-15T11:24:09.160Z,38.90
2019-05-15T11:25:10.465Z,39.50
2019-05-15T11:26:09.161Z,39.20
2019-05-15T11:27:10.389Z,39.30
2019-05-15T11:28:08.658Z,39.50
2019-05-15T11:29:05.777Z,39.60
2019-05-15T11:30:08.340Z,38.90
2019-05-15T11:31:05.461Z,38.90
2019-05-15T11:32:05.653Z,39.00
2019-05-15T11:33:05.809Z,39.00
2019-05-15T11:34:05.951Z,39.00
2019-05-15T11:35:05.211Z,38.90
2019-05-15T11:36:06.660Z,39.10
2019-05-15T11:37:08.473Z,39.20
2019-05-15T11:38:05.495Z,39.20
2019-05-15T11:39:05.696Z,38.80
2019-05-15T11:40:11.031Z,38.60
2019-05-15T11:41:05.422Z,38.60
2019-05-15T11:42:09.302Z,38.60
2019-05-15T11:43:08.961Z,38.90
2019-05-15T11:44:07.503Z,39.10
2019-05-15T11:45:05.553Z,39.00
2019-05-15T11:46:10.437Z,38.50
2019-05-15T11:47:07.901Z,38.50
2019-05-15T11:48:04.937Z,38.40
2019-05-15T11:49:05.056Z,38.40
2019-05-15T11:50:07.757Z,38.60
2019-05-15T11:51:10.050Z,39.50
2019-05-15T11:52:05.167Z,39.50
2019-05-15T11:53:09.203Z,39.60
2019-05-15T11:54:05.207Z,39.70
2019-05-15T11:55:08.841Z,39.80
2019-05-15T11:56:05.908Z,39.70
2019-05-15T11:57:09.008Z,38.60
2019-05-15T11:58:09.772Z,38.60
2019-05-15T11:59:13.570Z,38.90
2019-05-15T12:00:14.259Z,38.90
2019-05-15T12:01:04.998Z,39.10
2019-05-15T12:02:05.113Z,39.20
2019-05-15T12:03:09.472Z,39.50
2019-05-15T12:04:05.491Z,39.50
2019-05-15T12:05:09.657Z,39.90
2019-05-15T12:06:22.530Z,39.90
2019-05-15T12:07:18.519Z,39.70
2019-05-15T12:08:12.409Z,39.70
2019-05-15T12:09:10.741Z,39.90
2019-05-15T12:10:11.174Z,39.40
2019-05-15T12:12:05.791Z,39.40
2019-05-15T12:13:05.017Z,39.60
2019-05-15T12:14:05.123Z,39.40
2019-05-15T12:15:05.409Z,39.80
2019-05-15T12:16:07.660Z,39.80
2019-05-15T12:17:15.424Z,39.50
2019-05-15T12:19:15.199Z,39.10
2019-05-15T12:20:10.468Z,39.10
2019-05-15T12:20:10.872Z,39.10
2019-05-15T12:21:07.764Z,39.10
2019-05-15T12:22:08.288Z,38.70
2019-05-15T12:23:05.277Z,38.70
2019-05-15T12:24:09.211Z,38.90
2019-05-15T12:25:09.299Z,39.10
2019-05-15T12:26:08.799Z,39.00
2019-05-15T12:28:05.377Z,39.40
2019-05-15T12:29:13.102Z,40.20
2019-05-15T12:29:13.622Z,39.30
2019-05-15T12:30:05.697Z,40.30
2019-05-15T12:31:09.419Z,40.20
2019-05-15T12:33:13.156Z,40.60
2019-05-15T12:35:05.730Z,40.30
2019-05-15T12:36:10.844Z,40.40
2019-05-15T12:36:11.255Z,40.70
2019-05-15T12:37:10.266Z,40.40
2019-05-15T12:38:05.068Z,40.40
2019-05-15T13:00:09.835Z,41.70
2019-05-15T13:01:18.897Z,41.60
2019-05-15T13:02:08.015Z,41.60
2019-05-15T13:03:05.284Z,41.90
2019-05-15T13:04:05.583Z,41.80
2019-05-15T13:05:08.652Z,41.90
2019-05-15T13:06:08.390Z,41.90
2019-05-15T13:07:16.824Z,42.00
2019-05-15T13:08:07.784Z,41.50
2019-05-15T13:09:08.366Z,41.10
2019-05-15T13:10:05.679Z,40.50
2019-05-15T13:11:17.504Z,40.60
2019-05-15T13:12:05.970Z,27.70
2019-05-15T13:13:08.804Z,40.40
2019-05-15T13:14:05.302Z,40.50
2019-05-15T13:15:08.029Z,40.70